• Join FlightAware (Why Join?)
  • Login
  • US Flag 
05:43AM EDT


 

Airport Tracker/Info


-or-


 

Live Flight TrackerFlight Track Log ✈ BJS339 ✈ 23-Dec-2013 ✈ PHOG / OGG - CYYJ

Flight Track Log - Related Links

Times and Time Zones

All times are in EST time to prevent confusion due to time zone crossing. See the BJS339 flight status page for this flight to view local times or setup timezone preferences in your user account.

Time Position Orientation Groundspeed Altitude Reporting Facility
EST Latitude Longitude Course Direction KTS MPH feet Rate Location/Type
03:49PM 20.9000 -156.4167 360° North 150 173 1,100  Level Honolulu Center
03:50PM 20.9667 -156.4167 360° North 210 242 3,700 2,760 Climbing Honolulu Center
03:51PM 21.0333 -156.4167 360° North 260 299 6,700 3,060 Climbing Honolulu Center
03:52PM 21.1000 -156.4167 360° North 270 311 9,900 3,180 Climbing Honolulu Center
03:53PM 21.1833 -156.4167 360° North 280 322 13,100 2,820 Climbing Honolulu Center
03:54PM 21.2667 -156.4167 360° North 290 334 15,600 2,280 Climbing Honolulu Center
03:55PM 21.3500 -156.4167 360° North 300 345 17,800 2,040 Climbing Honolulu Center
03:56PM 21.4333 -156.4167 360° North 320 368 19,800 2,040 Climbing Honolulu Center
03:57PM 21.5333 -156.4167 360° North 320 368 21,900 1,980 Climbing Honolulu Center
03:58PM 21.6167 -156.4167 360° North 330 380 23,800 1,620 Climbing Honolulu Center
03:59PM 21.7167 -156.4167 360° North 330 380 25,200 1,440 Climbing Honolulu Center
04:00PM 21.8000 -156.4167 360° North 340 391 26,700 1,500 Climbing Honolulu Center
04:01PM 21.9000 -156.4167 360° North 340 391 28,300 1,440 Climbing Honolulu Center
04:02PM 22.0000 -156.4167 360° North 350 403 29,600 1,440 Climbing Honolulu Center
04:03PM 22.1000 -156.4167 360° North 330 380 31,200 1,440 Climbing Honolulu Center
04:04PM 22.1833 -156.4167 360° North 320 368 32,600 1,260 Climbing Honolulu Center
04:05PM 22.2667 -156.4167 360° North 300 345 33,800 780 Climbing Honolulu Center
04:06PM 22.3500 -156.4167 360° North 310 357 34,200 360 Climbing Honolulu Center
04:07PM 22.4500 -156.4167 360° North 310 357 34,600 360 Climbing Honolulu Center
04:08PM 22.5333 -156.4167 360° North 310 357 35,000 360 Climbing Honolulu Center
04:09PM 22.6167 -156.4167 360° North 320 368 35,400 360 Climbing Honolulu Center
04:10PM 22.7167 -156.4167 360° North 320 368 35,800 360 Climbing Honolulu Center
04:11PM 22.8000 -156.4167 360° North 320 368 36,200 360 Climbing Honolulu Center
04:12PM 22.8833 -156.4167 360° North 320 368 36,600 360 Climbing Honolulu Center
04:13PM 22.9833 -156.4167 360° North 320 368 37,000 180 Climbing Honolulu Center
04:14PM 23.0667 -156.4167 360° North 320 368 37,000  Level Honolulu Center
04:15PM 23.1667 -156.4167 360° North 340 391 37,000  Level Honolulu Center
04:16PM 23.2500 -156.4167 360° North 330 380 37,000  Level Honolulu Center
04:17PM 23.3333 -156.4167 360° North 350 403 37,000  Level Honolulu Center
04:18PM 23.4333 -156.4167 360° North 340 391 37,000  Level Honolulu Center
04:19PM 23.5333 -156.4000 North 350 403 37,000  Level Honolulu Center
04:20PM 23.6333 -156.4167 351° North 350 403 37,000  Level Honolulu Center
04:21PM 23.7167 -156.4167 360° North 350 403 37,000  Level Honolulu Center
04:22PM 23.8167 -156.4167 360° North 350 403 37,000  Level Honolulu Center
04:23PM 23.9167 -156.4167 360° North 350 403 37,000  Level Honolulu Center
04:24PM 24.0167 -156.4167 360° North 360 414 37,000  Level Honolulu Center
04:25PM 24.1167 -156.4167 360° North 350 403 37,000  Level Honolulu Center
04:26PM 24.2167 -156.4167 360° North 360 414 37,000  Level Honolulu Center
04:27PM 24.3167 -156.4167 360° North 340 391 37,000  Level Honolulu Center
04:42PM 25.2000 -156.4167 42° Northeast 418 481 37,000  Level Oakland Oceanic (ODAPS)
04:43PM 25.9067 -155.7091 42° Northeast  Level FlightAware Approximate
04:44PM 25.9947 -155.6199 42° Northeast  Level FlightAware Approximate
04:45PM 26.0827 -155.5306 42° Northeast  Level FlightAware Approximate
04:46PM 26.1707 -155.4411 42° Northeast  Level FlightAware Approximate
04:47PM 26.2586 -155.3514 42° Northeast  Level FlightAware Approximate
04:48PM 26.2362 -155.3772 42° Northeast 418 481 37,000  Level FlightAware Transoceanic
04:49PM 26.3222 -155.2898 42° Northeast 418 481 37,000  Level FlightAware Transoceanic
04:50PM 26.4082 -155.2022 42° Northeast 418 481 37,000  Level FlightAware Transoceanic
04:51PM 26.4941 -155.1145 42° Northeast 418 481 37,000  Level FlightAware Transoceanic
04:52PM 26.5799 -155.0267 42° Northeast 418 481 37,000  Level FlightAware Transoceanic
04:53PM 26.6657 -154.9387 43° Northeast 418 481 37,000  Level FlightAware Transoceanic
04:54PM 26.7515 -154.8506 43° Northeast 418 481 37,000  Level FlightAware Transoceanic
04:55PM 26.8372 -154.7623 43° Northeast 418 481 37,000  Level FlightAware Transoceanic
04:56PM 26.9228 -154.6740 43° Northeast 418 481 37,000  Level FlightAware Transoceanic
04:57PM 27.0084 -154.5855 43° Northeast 418 481 37,000  Level FlightAware Transoceanic
04:58PM 27.0939 -154.4968 43° Northeast 418 481 37,000  Level FlightAware Transoceanic
04:59PM 27.1794 -154.4081 43° Northeast 418 481 37,000  Level FlightAware Transoceanic
05:00PM 27.2648 -154.3191 43° Northeast 418 481 37,000  Level FlightAware Transoceanic
05:01PM 27.3502 -154.2301 43° Northeast 418 481 37,000  Level FlightAware Transoceanic
05:02PM 27.4355 -154.1409 43° Northeast 418 481 37,000  Level FlightAware Transoceanic
05:03PM 27.5207 -154.0516 43° Northeast 418 481 37,000  Level FlightAware Transoceanic
05:04PM 27.6059 -153.9621 43° Northeast 418 481 37,000  Level FlightAware Transoceanic
05:05PM 27.6910 -153.8725 43° Northeast 418 481 37,000  Level FlightAware Transoceanic
05:06PM 27.7761 -153.7828 43° Northeast 418 481 37,000  Level FlightAware Transoceanic
05:07PM 27.8611 -153.6929 43° Northeast 418 481 37,000  Level FlightAware Transoceanic
05:08PM 27.9461 -153.6029 43° Northeast 418 481 37,000  Level FlightAware Transoceanic
05:09PM 28.0310 -153.5127 43° Northeast 418 481 37,000  Level FlightAware Transoceanic
05:10PM 28.1158 -153.4224 43° Northeast 418 481 37,000  Level FlightAware Transoceanic
05:11PM 28.2006 -153.3320 43° Northeast 418 481 37,000  Level FlightAware Transoceanic
05:12PM 28.2853 -153.2414 43° Northeast 418 481 37,000  Level FlightAware Transoceanic
05:13PM 28.3699 -153.1507 43° Northeast 418 481 37,000  Level FlightAware Transoceanic
05:14PM 28.4545 -153.0598 43° Northeast 418 481 37,000  Level FlightAware Transoceanic
05:15PM 28.5391 -152.9687 43° Northeast 418 481 37,000  Level FlightAware Transoceanic
05:16PM 28.6236 -152.8776 43° Northeast 418 481 37,000  Level FlightAware Transoceanic
05:17PM 28.7080 -152.7863 44° Northeast 418 481 37,000  Level FlightAware Transoceanic
05:18PM 28.7923 -152.6948 44° Northeast 418 481 37,000  Level FlightAware Transoceanic
05:19PM 28.8766 -152.6032 44° Northeast 418 481 37,000  Level FlightAware Transoceanic
05:20PM 28.9609 -152.5114 44° Northeast 418 481 37,000  Level FlightAware Transoceanic
05:21PM 29.0450 -152.4195 44° Northeast 418 481 37,000  Level FlightAware Transoceanic
05:22PM 29.1291 -152.3274 44° Northeast 418 481 37,000  Level FlightAware Transoceanic
05:23PM 29.2132 -152.2352 44° Northeast 418 481 37,000  Level FlightAware Transoceanic
05:24PM 29.2972 -152.1429 44° Northeast 418 481 37,000  Level FlightAware Transoceanic
05:25PM 29.3811 -152.0503 44° Northeast 418 481 37,000  Level FlightAware Transoceanic
05:26PM 29.4649 -151.9577 44° Northeast 418 481 37,000  Level FlightAware Transoceanic
05:27PM 29.5487 -151.8649 44° Northeast 418 481 37,000  Level FlightAware Transoceanic
05:28PM 29.6324 -151.7719 44° Northeast 418 481 37,000  Level FlightAware Transoceanic
05:29PM 29.7161 -151.6787 44° Northeast 418 481 37,000  Level FlightAware Transoceanic
05:30PM 29.7997 -151.5854 44° Northeast 418 481 37,000  Level FlightAware Transoceanic
05:31PM 29.8832 -151.4920 44° Northeast 418 481 37,000  Level FlightAware Transoceanic
05:32PM 29.9667 -151.3984 44° Northeast 418 481 37,000  Level FlightAware Transoceanic
05:33PM 30.0501 -151.3047 44° Northeast 418 481 37,000  Level FlightAware Transoceanic
05:34PM 30.1334 -151.2107 44° Northeast 418 481 37,000  Level FlightAware Transoceanic
05:35PM 30.2167 -151.1167 44° Northeast 418 481 37,000  Level FlightAware Transoceanic
05:36PM 30.3028 -151.0190 44° Northeast 418 481 37,000  Level FlightAware Transoceanic
05:37PM 30.3889 -150.9211 44° Northeast 418 481 37,000  Level FlightAware Transoceanic
05:38PM 30.4749 -150.8230 45° Northeast 418 481 37,000  Level FlightAware Transoceanic
05:39PM 30.5609 -150.7248 45° Northeast 418 481 37,000  Level FlightAware Transoceanic
05:40PM 30.6467 -150.6264 45° Northeast 418 481 37,000  Level FlightAware Transoceanic
05:41PM 30.7325 -150.5278 45° Northeast 418 481 37,000  Level FlightAware Transoceanic
05:42PM 30.8183 -150.4290 45° Northeast 418 481 37,000  Level FlightAware Transoceanic
05:43PM 30.9039 -150.3301 45° Northeast 418 481 37,000  Level FlightAware Transoceanic
05:44PM 30.9895 -150.2310 45° Northeast 418 481 37,000 1,620 Level FlightAware Transoceanic
05:44PM 30.2167 -151.1167 44° Northeast 427 491 39,000  Climbing Oakland Oceanic (ODAPS)
06:41PM 35.0000 -145.2500 48° Northeast 445 512 39,000  Level Oakland Oceanic (ODAPS)
06:42PM 35.3502 -144.7784 48° Northeast 427 491 39,000  Level FlightAware Transoceanic
06:43PM 35.4375 -144.6598 48° Northeast 427 491 39,000  Level FlightAware Transoceanic
06:44PM 35.5247 -144.5410 48° Northeast 427 491 39,000  Level FlightAware Transoceanic
06:45PM 35.6117 -144.4220 48° Northeast 427 491 39,000  Level FlightAware Transoceanic
06:46PM 35.6986 -144.3026 48° Northeast 427 491 39,000  Level FlightAware Transoceanic
06:47PM 35.7854 -144.1831 48° Northeast 427 491 39,000  Level FlightAware Transoceanic
06:48PM 35.7464 -144.2369 48° Northeast 445 512 39,000  Level FlightAware Transoceanic
06:49PM 35.8288 -144.1232 48° Northeast 445 512 39,000  Level FlightAware Transoceanic
06:50PM 35.9111 -144.0092 48° Northeast 445 512 39,000  Level FlightAware Transoceanic
06:51PM 35.9933 -143.8950 48° Northeast 445 512 39,000  Level FlightAware Transoceanic
06:52PM 36.0753 -143.7806 48° Northeast 445 512 39,000  Level FlightAware Transoceanic
06:53PM 36.1573 -143.6659 49° Northeast 445 512 39,000  Level FlightAware Transoceanic
06:54PM 36.2392 -143.5510 49° Northeast 445 512 39,000  Level FlightAware Transoceanic
06:55PM 36.3209 -143.4358 49° Northeast 445 512 39,000  Level FlightAware Transoceanic
06:56PM 36.4026 -143.3204 49° Northeast 445 512 39,000  Level FlightAware Transoceanic
06:57PM 36.4841 -143.2048 49° Northeast 445 512 39,000  Level FlightAware Transoceanic
06:58PM 36.5655 -143.0889 49° Northeast 445 512 39,000  Level FlightAware Transoceanic
06:59PM 36.6468 -142.9727 49° Northeast 445 512 39,000  Level FlightAware Transoceanic
07:00PM 36.7280 -142.8564 49° Northeast 445 512 39,000  Level FlightAware Transoceanic
07:01PM 36.8091 -142.7397 49° Northeast 445 512 39,000  Level FlightAware Transoceanic
07:02PM 36.8900 -142.6229 49° Northeast 445 512 39,000  Level FlightAware Transoceanic
07:03PM 36.9709 -142.5058 49° Northeast 445 512 39,000  Level FlightAware Transoceanic
07:04PM 37.0516 -142.3884 49° Northeast 445 512 39,000  Level FlightAware Transoceanic
07:05PM 37.1323 -142.2708 49° Northeast 445 512 39,000  Level FlightAware Transoceanic
07:06PM 37.2128 -142.1529 49° Northeast 445 512 39,000  Level FlightAware Transoceanic
07:07PM 37.2931 -142.0348 50° Northeast 445 512 39,000  Level FlightAware Transoceanic
07:08PM 37.3734 -141.9164 50° Northeast 445 512 39,000  Level FlightAware Transoceanic
07:09PM 37.4536 -141.7978 50° Northeast 445 512 39,000  Level FlightAware Transoceanic
07:10PM 37.5336 -141.6789 50° Northeast 445 512 39,000  Level FlightAware Transoceanic
07:11PM 37.6135 -141.5598 50° Northeast 445 512 39,000  Level FlightAware Transoceanic
07:12PM 37.6933 -141.4404 50° Northeast 445 512 39,000  Level FlightAware Transoceanic
07:13PM 37.7730 -141.3207 50° Northeast 445 512 39,000  Level FlightAware Transoceanic
07:14PM 37.8525 -141.2008 50° Northeast 445 512 39,000  Level FlightAware Transoceanic
07:15PM 37.9319 -141.0806 50° Northeast 445 512 39,000  Level FlightAware Transoceanic
07:16PM 38.0112 -140.9602 50° Northeast 445 512 39,000  Level FlightAware Transoceanic
07:17PM 38.0904 -140.8395 50° Northeast 445 512 39,000  Level FlightAware Transoceanic
07:18PM 38.1695 -140.7186 50° Northeast 445 512 39,000  Level FlightAware Transoceanic
07:19PM 38.2484 -140.5974 50° Northeast 445 512 39,000  Level FlightAware Transoceanic
07:20PM 38.3272 -140.4759 50° Northeast 445 512 39,000  Level FlightAware Transoceanic
07:21PM 38.4059 -140.3542 51° Northeast 445 512 39,000  Level FlightAware Transoceanic
07:22PM 38.4845 -140.2321 51° Northeast 445 512 39,000  Level FlightAware Transoceanic
07:23PM 38.5629 -140.1099 51° Northeast 445 512 39,000  Level FlightAware Transoceanic
07:24PM 38.6412 -139.9874 51° Northeast 445 512 39,000  Level FlightAware Transoceanic
07:25PM 38.7194 -139.8645 51° Northeast 445 512 39,000  Level FlightAware Transoceanic
07:26PM 38.7974 -139.7415 51° Northeast 445 512 39,000  Level FlightAware Transoceanic
07:27PM 38.8753 -139.6181 51° Northeast 445 512 39,000  Level FlightAware Transoceanic
07:28PM 38.9531 -139.4945 51° Northeast 445 512 39,000  Level FlightAware Transoceanic
07:29PM 39.0308 -139.3706 51° Northeast 445 512 39,000  Level FlightAware Transoceanic
07:30PM 39.1083 -139.2465 51° Northeast 445 512 39,000  Level FlightAware Transoceanic
07:31PM 39.1857 -139.1221 51° Northeast 445 512 39,000  Level FlightAware Transoceanic
07:32PM 39.2630 -138.9973 51° Northeast 445 512 39,000  Level FlightAware Transoceanic
07:33PM 39.3401 -138.8724 51° Northeast 445 512 39,000  Level FlightAware Transoceanic
07:34PM 39.4171 -138.7471 52° Northeast 445 512 39,000  Level FlightAware Transoceanic
07:35PM 39.4939 -138.6216 52° Northeast 445 512 39,000  Level FlightAware Transoceanic
07:36PM 39.5706 -138.4958 52° Northeast 445 512 39,000  Level FlightAware Transoceanic
07:37PM 39.6472 -138.3697 52° Northeast 445 512 39,000  Level FlightAware Transoceanic
07:38PM 39.7237 -138.2433 52° Northeast 445 512 39,000  Level FlightAware Transoceanic
07:39PM 39.8000 -138.1167 52° Northeast 445 512 39,000  Level FlightAware Transoceanic
07:40PM 39.8816 -137.9808 52° Northeast 445 512 39,000  Level FlightAware Transoceanic
07:41PM 39.9630 -137.8447 52° Northeast 445 512 39,000  Level FlightAware Transoceanic
07:42PM 40.0443 -137.7082 52° Northeast 445 512 39,000  Level FlightAware Transoceanic
07:42PM 39.8000 -138.1167 52° Northeast 461 531 39,000  Level Oakland Oceanic (ODAPS)
08:36PM 44.1000 -129.9833 58° Northeast 543 625 41,000  Climbing Oakland Oceanic (ODAPS)
08:47PM 45.1406 -127.5989 50° Northeast 494 568 41,000  Level Seattle Center
08:48PM 45.1970 -127.4563 60° Northeast 543 625 41,000  Level FlightAware Transoceanic
08:48PM 45.2089 -127.4314 60° Northeast 496 571 41,000  Level Seattle Center
08:49PM 45.2732 -127.2722 60° Northeast 543 625 41,000  Level FlightAware Transoceanic
08:49PM 45.2894 -127.2608 56° Northeast 509 586 41,000  Level Seattle Center
08:50PM 45.3491 -127.0875 60° Northeast 543 625 41,000  Level FlightAware Transoceanic
08:50PM 45.3531 -127.0947 61° Northeast 496 571 41,000  Level Seattle Center
08:51PM 45.4247 -126.9023 60° Northeast 543 625 41,000  Level FlightAware Transoceanic
08:51PM 45.4189 -126.9267 61° Northeast 496 571 41,000  Level Seattle Center
08:52PM 45.5000 -126.7167 50° Northeast 543 625 41,000  Level FlightAware Transoceanic
08:52PM 45.4856 -126.7600 60° Northeast 490 564 41,000  Level Seattle Center
08:53PM 45.5694 -126.6092 52° Northeast 496 571 41,000  Level Seattle Center
08:54PM 45.6664 -126.4819 43° Northeast 476 548 41,000  Level Seattle Center
08:55PM 45.7692 -126.3633 39° Northeast 474 545 41,000  Level Seattle Center
08:56PM 45.8675 -126.2481 39° Northeast 464 534 41,000  Level Seattle Center
08:57PM 45.9694 -126.1319 38° Northeast 465 535 41,000  Level Seattle Center
08:58PM 46.0722 -126.0147 38° Northeast 469 540 41,000  Level Seattle Center
09:00PM 46.1953 -125.8728 39° Northeast 472 543 41,000  Level Seattle Center
09:01PM 46.2986 -125.7539 38° Northeast 475 547 41,000  Level Seattle Center
09:02PM 46.4031 -125.6314 39° Northeast 475 547 41,000  Level Seattle Center
09:03PM 46.5050 -125.5133 39° Northeast 473 544 41,000  Level Seattle Center
09:04PM 46.6072 -125.3922 39° Northeast 477 549 41,000  Level Seattle Center
09:05PM 46.7094 -125.2733 39° Northeast 474 545 41,000  Level Seattle Center
09:06PM 46.8114 -125.1553 38° Northeast 472 543 41,000  Level Seattle Center
09:07PM 46.9119 -125.0325 40° Northeast 472 543 41,000  Level Seattle Center
09:08PM 47.0131 -124.9103 39° Northeast 473 544 41,000  Level Seattle Center
09:09PM 47.1136 -124.7903 39° Northeast 471 542 41,000 -300 Level Seattle Center
09:10PM 47.2133 -124.6697 39° Northeast 467 537 40,400 -1,260 Descending Seattle Center
09:11PM 47.3144 -124.5447 40° Northeast 474 545 38,500 -2,760 Descending Seattle Center
09:12PM 47.4369 -124.4022 38° Northeast 472 543 34,800 -3,600 Descending Seattle Center
09:13PM 47.5450 -124.3203 27° Northeast 447 514 31,300 -3,480 Descending Seattle Center
09:14PM 47.6497 -124.2347 29° Northeast 435 501 27,800 -3,480 Descending Seattle Center
09:15PM 47.7508 -124.1550 28° Northeast 421 484 24,300 -3,240 Descending Seattle Center
09:16PM 47.8419 -124.0811 29° Northeast 387 445 21,300 -2,880 Descending Seattle Center
09:17PM 47.9331 -124.0092 28° Northeast 375 432 18,500 -2,760 Descending Seattle Center
09:18PM 48.0211 -123.9392 28° Northeast 365 420 15,800 -2,820 Descending Seattle Center
09:19PM 48.1058 -123.8561 33° Northeast 372 428 12,800 -3,180 Descending Seattle Center
09:19PM 48.1500 -123.7667 53° Northeast 370 426 10,400 -1,680 Descending Vancouver Center
09:20PM 48.2167 -123.6667 45° Northeast 350 403 10,000 -420 Descending Vancouver Center
09:21PM 48.2833 -123.5667 45° Northeast 330 380 9,600 -1,260 Descending Vancouver Center
09:22PM 48.3333 -123.5000 42° Northeast 280 322 7,500 -2,040 Descending Vancouver Center
09:23PM 48.3833 -123.4167 48° Northeast 270 311 5,600 -1,800 Descending Vancouver Center
09:24PM 48.4500 -123.3500 34° Northeast 260 299 4,000 -840 Descending Vancouver Center
09:25PM 48.4833 -123.3000 45° Northeast 230 265 4,000 -540 Level Vancouver Center
09:26PM 48.5333 -123.2167 48° Northeast 210 242 3,000 -1,020 Descending Vancouver Center
09:27PM 48.5833 -123.2167 360° North 200 230 2,000 -600 Descending Vancouver Center
09:28PM 48.6000 -123.2667 297° West 190 219 1,900 -480 Descending Vancouver Center
09:29PM 48.6167 -123.3500 287° West 150 173 1,100 -720 Descending Vancouver Center
09:30PM 48.6167 -123.4000 270° West 120 138 500 -540 Descending Vancouver Center
09:31PM 48.6333 -123.4167 327° Northwest 120 138 100 -420 Descending Vancouver Center